Haworth, New Jersey
Current Conditions -  °F | °C
As of 11:51 AM on Monday 22 Dec 2014 (Local Time) from KTEB Reporting Station
Overcast Overcast  
Wind Chill: 37°   Ceiling: 1100
Heat Index: 41°   Visibility: 7mi
Dew Point: 33°   Wind: 6mph
Humidity: 73%   Direction: 20°NNE
Pressure: 30.28"   Gusts: NA
Location:  40.96°N, 73.99°W
Report Text: KTEB 221651Z 02005KT 7SM OVC011 05/01 A3028 RMK AO2 SLP252 T00500006
Loading
Personal Weather Stations






























Interactive Weather Map New forecast layout! Learn more

10-Day Weather Forecast

Advertisements
Track Severe Weather on mobile